sensor_id;sensor_type;location;lat;lon;timestamp;temperature;humidity
42833;DHT22;64089;51.478;5.692;2023-08-12T00:00:16;21.20;99.90
42833;DHT22;64089;51.478;5.692;2023-08-12T00:02:43;21.20;99.90
42833;DHT22;64089;51.478;5.692;2023-08-12T00:05:10;21.20;99.90
42833;DHT22;64089;51.478;5.692;2023-08-12T00:07:39;21.20;99.90
42833;DHT22;64089;51.478;5.692;2023-08-12T00:10:10;21.20;99.90
42833;DHT22;64089;51.478;5.692;2023-08-12T00:12:36;21.20;99.90
42833;DHT22;64089;51.478;5.692;2023-08-12T00:15:02;21.20;99.90
42833;DHT22;64089;51.478;5.692;2023-08-12T00:17:30;21.20;99.90
42833;DHT22;64089;51.478;5.692;2023-08-12T00:19:55;21.20;99.90
42833;DHT22;64089;51.478;5.692;2023-08-12T00:22:22;21.20;99.90
42833;DHT22;64089;51.478;5.692;2023-08-12T00:24:48;21.20;99.90
42833;DHT22;64089;51.478;5.692;2023-08-12T00:27:13;21.10;99.90
42833;DHT22;64089;51.478;5.692;2023-08-12T00:29:39;21.10;99.90
42833;DHT22;64089;51.478;5.692;2023-08-12T00:32:05;21.10;99.90
42833;DHT22;64089;51.478;5.692;2023-08-12T00:34:31;21.10;99.90
42833;DHT22;64089;51.478;5.692;2023-08-12T00:36:56;21.00;99.90
42833;DHT22;64089;51.478;5.692;2023-08-12T00:39:22;21.00;99.90
42833;DHT22;64089;51.478;5.692;2023-08-12T00:41:48;20.90;99.90
42833;DHT22;64089;51.478;5.692;2023-08-12T00:44:14;20.90;99.90
42833;DHT22;64089;51.478;5.692;2023-08-12T00:46:41;20.80;99.90
42833;DHT22;64089;51.478;5.692;2023-08-12T00:49:06;20.80;99.90
42833;DHT22;64089;51.478;5.692;2023-08-12T00:51:33;20.90;99.90
42833;DHT22;64089;51.478;5.692;2023-08-12T00:53:59;20.80;99.90
42833;DHT22;64089;51.478;5.692;2023-08-12T00:56:25;20.80;99.90
42833;DHT22;64089;51.478;5.692;2023-08-12T00:58:52;20.80;99.90
42833;DHT22;64089;51.478;5.692;2023-08-12T01:01:19;20.90;99.90
42833;DHT22;64089;51.478;5.692;2023-08-12T01:03:45;20.90;99.90
42833;DHT22;64089;51.478;5.692;2023-08-12T01:06:11;20.80;99.90
42833;DHT22;64089;51.478;5.692;2023-08-12T01:08:37;20.80;99.90
42833;DHT22;64089;51.478;5.692;2023-08-12T01:11:16;20.90;99.90
42833;DHT22;64089;51.478;5.692;2023-08-12T01:16:52;20.70;99.90
42833;DHT22;64089;51.478;5.692;2023-08-12T01:19:34;20.70;99.90
42833;DHT22;64089;51.478;5.692;2023-08-12T01:22:02;20.70;99.90
42833;DHT22;64089;51.478;5.692;2023-08-12T01:24:34;20.70;99.90
42833;DHT22;64089;51.478;5.692;2023-08-12T01:27:01;20.70;99.90
42833;DHT22;64089;51.478;5.692;2023-08-12T01:29:27;20.70;99.90
42833;DHT22;64089;51.478;5.692;2023-08-12T01:31:58;20.60;99.90
42833;DHT22;64089;51.478;5.692;2023-08-12T01:34:50;20.60;99.90
42833;DHT22;64089;51.478;5.692;2023-08-12T01:37:24;20.70;99.90
42833;DHT22;64089;51.478;5.692;2023-08-12T01:39:52;20.60;99.90
42833;DHT22;64089;51.478;5.692;2023-08-12T01:42:19;20.70;99.90
42833;DHT22;64089;51.478;5.692;2023-08-12T01:44:46;20.70;99.90
42833;DHT22;64089;51.478;5.692;2023-08-12T01:47:12;20.70;99.90
42833;DHT22;64089;51.478;5.692;2023-08-12T01:49:37;20.70;99.90
42833;DHT22;64089;51.478;5.692;2023-08-12T01:52:03;20.70;99.90
42833;DHT22;64089;51.478;5.692;2023-08-12T01:54:29;20.70;99.90
42833;DHT22;64089;51.478;5.692;2023-08-12T01:57:03;20.70;99.90
42833;DHT22;64089;51.478;5.692;2023-08-12T01:59:36;20.70;99.90
42833;DHT22;64089;51.478;5.692;2023-08-12T02:02:02;20.80;99.90
42833;DHT22;64089;51.478;5.692;2023-08-12T02:04:28;20.80;99.90
42833;DHT22;64089;51.478;5.692;2023-08-12T02:06:54;20.70;99.90
42833;DHT22;64089;51.478;5.692;2023-08-12T02:09:20;20.70;99.90
42833;DHT22;64089;51.478;5.692;2023-08-12T02:11:46;20.80;99.90
42833;DHT22;64089;51.478;5.692;2023-08-12T02:14:12;20.70;99.90
42833;DHT22;64089;51.478;5.692;2023-08-12T02:16:38;20.70;99.90
42833;DHT22;64089;51.478;5.692;2023-08-12T02:19:03;20.70;99.90
42833;DHT22;64089;51.478;5.692;2023-08-12T02:21:29;20.80;99.90
42833;DHT22;64089;51.478;5.692;2023-08-12T02:23:55;20.70;99.90
42833;DHT22;64089;51.478;5.692;2023-08-12T02:26:20;20.70;99.90
42833;DHT22;64089;51.478;5.692;2023-08-12T02:28:46;20.70;99.90
42833;DHT22;64089;51.478;5.692;2023-08-12T02:31:12;20.70;99.90
42833;DHT22;64089;51.478;5.692;2023-08-12T02:33:37;20.70;99.90
42833;DHT22;64089;51.478;5.692;2023-08-12T02:36:03;20.70;99.90
42833;DHT22;64089;51.478;5.692;2023-08-12T02:38:29;20.60;99.90
42833;DHT22;64089;51.478;5.692;2023-08-12T02:40:55;20.70;99.90
42833;DHT22;64089;51.478;5.692;2023-08-12T02:43:21;20.60;99.90
42833;DHT22;64089;51.478;5.692;2023-08-12T02:45:46;20.50;99.90
42833;DHT22;64089;51.478;5.692;2023-08-12T02:48:12;20.60;99.90
42833;DHT22;64089;51.478;5.692;2023-08-12T02:50:38;20.60;99.90
42833;DHT22;64089;51.478;5.692;2023-08-12T02:53:05;20.60;99.90
42833;DHT22;64089;51.478;5.692;2023-08-12T02:55:31;20.50;99.90
42833;DHT22;64089;51.478;5.692;2023-08-12T02:58:00;20.60;99.90
42833;DHT22;64089;51.478;5.692;2023-08-12T03:00:26;20.50;99.90
42833;DHT22;64089;51.478;5.692;2023-08-12T03:02:53;20.60;99.90
42833;DHT22;64089;51.478;5.692;2023-08-12T03:05:18;20.60;99.90
42833;DHT22;64089;51.478;5.692;2023-08-12T03:07:44;20.50;99.90
42833;DHT22;64089;51.478;5.692;2023-08-12T03:10:10;20.50;99.90
42833;DHT22;64089;51.478;5.692;2023-08-12T03:12:37;20.50;99.90
42833;DHT22;64089;51.478;5.692;2023-08-12T03:15:03;20.50;99.90
42833;DHT22;64089;51.478;5.692;2023-08-12T03:17:29;20.50;99.90
42833;DHT22;64089;51.478;5.692;2023-08-12T03:19:57;20.60;99.90
42833;DHT22;64089;51.478;5.692;2023-08-12T03:22:25;20.50;99.90
42833;DHT22;64089;51.478;5.692;2023-08-12T03:24:50;20.50;99.90
42833;DHT22;64089;51.478;5.692;2023-08-12T03:27:16;20.50;99.90
42833;DHT22;64089;51.478;5.692;2023-08-12T03:29:42;20.60;99.90
42833;DHT22;64089;51.478;5.692;2023-08-12T03:32:07;20.50;99.90
42833;DHT22;64089;51.478;5.692;2023-08-12T03:34:33;20.50;99.90
42833;DHT22;64089;51.478;5.692;2023-08-12T03:36:58;20.50;99.90
42833;DHT22;64089;51.478;5.692;2023-08-12T03:39:24;20.50;99.90
42833;DHT22;64089;51.478;5.692;2023-08-12T03:41:50;20.50;99.90
42833;DHT22;64089;51.478;5.692;2023-08-12T03:44:16;20.50;99.90
42833;DHT22;64089;51.478;5.692;2023-08-12T03:46:42;20.50;99.90
42833;DHT22;64089;51.478;5.692;2023-08-12T03:49:07;20.50;99.90
42833;DHT22;64089;51.478;5.692;2023-08-12T03:51:33;20.50;99.90
42833;DHT22;64089;51.478;5.692;2023-08-12T03:53:59;20.50;99.90
42833;DHT22;64089;51.478;5.692;2023-08-12T03:56:24;20.50;99.90
42833;DHT22;64089;51.478;5.692;2023-08-12T03:58:51;20.50;99.90
42833;DHT22;64089;51.478;5.692;2023-08-12T04:01:16;20.50;99.90
42833;DHT22;64089;51.478;5.692;2023-08-12T04:03:42;20.50;99.90
42833;DHT22;64089;51.478;5.692;2023-08-12T04:06:07;20.40;99.90
42833;DHT22;64089;51.478;5.692;2023-08-12T04:08:33;20.40;99.90
42833;DHT22;64089;51.478;5.692;2023-08-12T04:10:59;20.40;99.90
42833;DHT22;64089;51.478;5.692;2023-08-12T04:13:25;20.40;99.90
42833;DHT22;64089;51.478;5.692;2023-08-12T04:15:51;20.40;99.90
42833;DHT22;64089;51.478;5.692;2023-08-12T04:18:18;20.40;99.90
42833;DHT22;64089;51.478;5.692;2023-08-12T04:20:45;20.40;99.90
42833;DHT22;64089;51.478;5.692;2023-08-12T04:23:12;20.40;99.90
42833;DHT22;64089;51.478;5.692;2023-08-12T04:25:38;20.40;99.90
42833;DHT22;64089;51.478;5.692;2023-08-12T04:28:04;20.40;99.90
42833;DHT22;64089;51.478;5.692;2023-08-12T04:30:29;20.40;99.90
42833;DHT22;64089;51.478;5.692;2023-08-12T04:32:55;20.40;99.90
42833;DHT22;64089;51.478;5.692;2023-08-12T04:35:21;20.40;99.90
42833;DHT22;64089;51.478;5.692;2023-08-12T04:37:46;20.40;99.90
42833;DHT22;64089;51.478;5.692;2023-08-12T04:40:12;20.40;99.90
42833;DHT22;64089;51.478;5.692;2023-08-12T04:42:37;20.40;99.90
42833;DHT22;64089;51.478;5.692;2023-08-12T04:45:03;20.30;99.90
42833;DHT22;64089;51.478;5.692;2023-08-12T04:47:29;20.30;99.90
42833;DHT22;64089;51.478;5.692;2023-08-12T04:49:55;20.30;99.90
42833;DHT22;64089;51.478;5.692;2023-08-12T04:52:20;20.30;99.90
42833;DHT22;64089;51.478;5.692;2023-08-12T04:54:46;20.30;99.90
42833;DHT22;64089;51.478;5.692;2023-08-12T04:57:12;20.30;99.90
42833;DHT22;64089;51.478;5.692;2023-08-12T04:59:37;20.20;99.90
42833;DHT22;64089;51.478;5.692;2023-08-12T05:02:03;20.10;99.90
42833;DHT22;64089;51.478;5.692;2023-08-12T05:04:29;20.10;99.90
42833;DHT22;64089;51.478;5.692;2023-08-12T05:06:54;20.10;99.90
42833;DHT22;64089;51.478;5.692;2023-08-12T05:09:20;20.00;99.90
42833;DHT22;64089;51.478;5.692;2023-08-12T05:11:46;20.00;99.90
42833;DHT22;64089;51.478;5.692;2023-08-12T05:14:12;20.00;99.90
42833;DHT22;64089;51.478;5.692;2023-08-12T05:16:37;20.00;99.90
42833;DHT22;64089;51.478;5.692;2023-08-12T05:19:03;20.00;99.90
42833;DHT22;64089;51.478;5.692;2023-08-12T05:21:29;20.00;99.90
42833;DHT22;64089;51.478;5.692;2023-08-12T05:23:54;19.90;99.90
42833;DHT22;64089;51.478;5.692;2023-08-12T05:26:20;19.90;99.90
42833;DHT22;64089;51.478;5.692;2023-08-12T05:28:46;19.90;99.90
42833;DHT22;64089;51.478;5.692;2023-08-12T05:31:12;19.90;99.90
42833;DHT22;64089;51.478;5.692;2023-08-12T05:33:37;19.80;99.90
42833;DHT22;64089;51.478;5.692;2023-08-12T05:36:03;19.80;99.90
42833;DHT22;64089;51.478;5.692;2023-08-12T05:38:29;19.70;99.90
42833;DHT22;64089;51.478;5.692;2023-08-12T05:40:54;19.70;99.90
42833;DHT22;64089;51.478;5.692;2023-08-12T05:43:20;19.70;99.90
42833;DHT22;64089;51.478;5.692;2023-08-12T05:45:46;19.70;99.90
42833;DHT22;64089;51.478;5.692;2023-08-12T05:48:12;19.70;99.90
42833;DHT22;64089;51.478;5.692;2023-08-12T05:50:37;19.70;99.90
42833;DHT22;64089;51.478;5.692;2023-08-12T05:53:03;19.70;99.90
42833;DHT22;64089;51.478;5.692;2023-08-12T05:55:29;19.70;99.90
42833;DHT22;64089;51.478;5.692;2023-08-12T05:57:54;19.70;99.90
42833;DHT22;64089;51.478;5.692;2023-08-12T06:00:20;19.70;99.90
42833;DHT22;64089;51.478;5.692;2023-08-12T06:02:46;19.70;99.90
42833;DHT22;64089;51.478;5.692;2023-08-12T06:05:12;19.70;99.90
42833;DHT22;64089;51.478;5.692;2023-08-12T06:07:37;19.70;99.90
42833;DHT22;64089;51.478;5.692;2023-08-12T06:10:04;19.70;99.90
42833;DHT22;64089;51.478;5.692;2023-08-12T06:12:29;19.70;99.90
42833;DHT22;64089;51.478;5.692;2023-08-12T06:14:55;19.70;99.90
42833;DHT22;64089;51.478;5.692;2023-08-12T06:17:21;19.70;99.90
42833;DHT22;64089;51.478;5.692;2023-08-12T06:19:46;19.60;99.90
42833;DHT22;64089;51.478;5.692;2023-08-12T06:22:12;19.70;99.90
42833;DHT22;64089;51.478;5.692;2023-08-12T06:24:38;19.70;99.90
42833;DHT22;64089;51.478;5.692;2023-08-12T06:27:03;19.70;99.90
42833;DHT22;64089;51.478;5.692;2023-08-12T06:29:29;19.80;99.90
42833;DHT22;64089;51.478;5.692;2023-08-12T06:31:54;19.80;99.90
42833;DHT22;64089;51.478;5.692;2023-08-12T06:34:21;19.80;99.90
42833;DHT22;64089;51.478;5.692;2023-08-12T06:36:46;19.90;99.90
42833;DHT22;64089;51.478;5.692;2023-08-12T06:39:12;19.80;99.90
42833;DHT22;64089;51.478;5.692;2023-08-12T06:41:37;19.80;99.90
42833;DHT22;64089;51.478;5.692;2023-08-12T06:44:03;19.80;99.90
42833;DHT22;64089;51.478;5.692;2023-08-12T06:46:29;19.90;99.90
42833;DHT22;64089;51.478;5.692;2023-08-12T06:48:58;19.90;99.90
42833;DHT22;64089;51.478;5.692;2023-08-12T06:51:23;20.00;99.90
42833;DHT22;64089;51.478;5.692;2023-08-12T06:53:49;20.00;99.90
42833;DHT22;64089;51.478;5.692;2023-08-12T06:56:14;20.20;99.90
42833;DHT22;64089;51.478;5.692;2023-08-12T06:58:40;20.30;99.90
42833;DHT22;64089;51.478;5.692;2023-08-12T07:01:06;20.50;99.90
42833;DHT22;64089;51.478;5.692;2023-08-12T07:03:31;20.60;99.90
42833;DHT22;64089;51.478;5.692;2023-08-12T07:05:58;20.60;99.90
42833;DHT22;64089;51.478;5.692;2023-08-12T07:08:23;20.50;99.90
42833;DHT22;64089;51.478;5.692;2023-08-12T07:10:49;20.60;99.90
42833;DHT22;64089;51.478;5.692;2023-08-12T07:13:15;20.50;99.90
42833;DHT22;64089;51.478;5.692;2023-08-12T07:15:40;20.60;99.90
42833;DHT22;64089;51.478;5.692;2023-08-12T07:18:06;20.60;99.90
42833;DHT22;64089;51.478;5.692;2023-08-12T07:20:32;20.70;99.90
42833;DHT22;64089;51.478;5.692;2023-08-12T07:22:58;20.70;99.90
42833;DHT22;64089;51.478;5.692;2023-08-12T07:25:23;20.60;99.90
42833;DHT22;64089;51.478;5.692;2023-08-12T07:27:49;20.60;99.90
42833;DHT22;64089;51.478;5.692;2023-08-12T07:30:15;20.60;99.90
42833;DHT22;64089;51.478;5.692;2023-08-12T07:32:40;20.60;99.90
42833;DHT22;64089;51.478;5.692;2023-08-12T07:35:06;20.70;99.90
42833;DHT22;64089;51.478;5.692;2023-08-12T07:37:32;20.80;99.90
42833;DHT22;64089;51.478;5.692;2023-08-12T07:39:58;20.80;99.90
42833;DHT22;64089;51.478;5.692;2023-08-12T07:42:23;20.80;99.90
42833;DHT22;64089;51.478;5.692;2023-08-12T07:44:49;20.90;99.90
42833;DHT22;64089;51.478;5.692;2023-08-12T07:47:15;20.90;99.90
42833;DHT22;64089;51.478;5.692;2023-08-12T07:49:42;20.90;99.90
42833;DHT22;64089;51.478;5.692;2023-08-12T07:52:07;20.90;99.90
42833;DHT22;64089;51.478;5.692;2023-08-12T07:54:33;20.90;99.90
42833;DHT22;64089;51.478;5.692;2023-08-12T07:56:59;20.90;99.90
42833;DHT22;64089;51.478;5.692;2023-08-12T07:59:24;20.90;99.90
42833;DHT22;64089;51.478;5.692;2023-08-12T08:01:51;20.90;99.90
42833;DHT22;64089;51.478;5.692;2023-08-12T08:04:17;21.00;99.90
42833;DHT22;64089;51.478;5.692;2023-08-12T08:06:42;21.00;99.90
42833;DHT22;64089;51.478;5.692;2023-08-12T08:09:09;21.00;99.90
42833;DHT22;64089;51.478;5.692;2023-08-12T08:11:36;21.10;99.90
42833;DHT22;64089;51.478;5.692;2023-08-12T08:14:01;21.20;99.90
42833;DHT22;64089;51.478;5.692;2023-08-12T08:16:27;21.20;99.90
42833;DHT22;64089;51.478;5.692;2023-08-12T08:18:52;21.30;99.90
42833;DHT22;64089;51.478;5.692;2023-08-12T08:21:18;21.30;99.90
42833;DHT22;64089;51.478;5.692;2023-08-12T08:23:44;21.30;99.90
42833;DHT22;64089;51.478;5.692;2023-08-12T08:26:10;21.40;99.90
42833;DHT22;64089;51.478;5.692;2023-08-12T08:28:35;21.50;99.90
42833;DHT22;64089;51.478;5.692;2023-08-12T08:31:01;21.60;99.90
42833;DHT22;64089;51.478;5.692;2023-08-12T08:33:26;21.40;99.90
42833;DHT22;64089;51.478;5.692;2023-08-12T08:35:53;21.40;99.90
42833;DHT22;64089;51.478;5.692;2023-08-12T08:38:19;21.30;99.90
42833;DHT22;64089;51.478;5.692;2023-08-12T08:40:45;21.20;99.90
42833;DHT22;64089;51.478;5.692;2023-08-12T08:43:14;21.10;99.90
42833;DHT22;64089;51.478;5.692;2023-08-12T08:45:41;21.00;99.90
42833;DHT22;64089;51.478;5.692;2023-08-12T08:48:11;20.80;99.90
42833;DHT22;64089;51.478;5.692;2023-08-12T08:50:38;20.90;99.90
42833;DHT22;64089;51.478;5.692;2023-08-12T08:53:06;20.90;99.90
42833;DHT22;64089;51.478;5.692;2023-08-12T08:55:32;20.90;99.90
42833;DHT22;64089;51.478;5.692;2023-08-12T08:57:57;20.90;99.90
42833;DHT22;64089;51.478;5.692;2023-08-12T09:00:25;21.00;99.90
42833;DHT22;64089;51.478;5.692;2023-08-12T09:02:51;21.20;99.90
42833;DHT22;64089;51.478;5.692;2023-08-12T09:05:17;21.40;99.90
42833;DHT22;64089;51.478;5.692;2023-08-12T09:07:44;21.70;99.90
42833;DHT22;64089;51.478;5.692;2023-08-12T09:10:10;21.90;99.90
42833;DHT22;64089;51.478;5.692;2023-08-12T09:12:37;21.90;99.90
42833;DHT22;64089;51.478;5.692;2023-08-12T09:15:04;22.00;99.90
42833;DHT22;64089;51.478;5.692;2023-08-12T09:17:32;21.90;99.90
42833;DHT22;64089;51.478;5.692;2023-08-12T09:19:58;22.00;99.90
42833;DHT22;64089;51.478;5.692;2023-08-12T09:22:25;21.90;99.90
42833;DHT22;64089;51.478;5.692;2023-08-12T09:24:58;21.90;99.90
42833;DHT22;64089;51.478;5.692;2023-08-12T09:27:24;21.90;99.90
42833;DHT22;64089;51.478;5.692;2023-08-12T09:29:50;21.90;99.90
42833;DHT22;64089;51.478;5.692;2023-08-12T09:32:19;22.00;99.90
42833;DHT22;64089;51.478;5.692;2023-08-12T09:34:46;22.10;99.90
42833;DHT22;64089;51.478;5.692;2023-08-12T09:37:13;22.00;99.90
42833;DHT22;64089;51.478;5.692;2023-08-12T09:39:40;21.90;99.90
42833;DHT22;64089;51.478;5.692;2023-08-12T09:42:05;21.90;99.90
42833;DHT22;64089;51.478;5.692;2023-08-12T09:44:35;21.80;99.90
42833;DHT22;64089;51.478;5.692;2023-08-12T09:47:01;21.70;99.90
42833;DHT22;64089;51.478;5.692;2023-08-12T09:49:26;21.70;99.90
42833;DHT22;64089;51.478;5.692;2023-08-12T09:51:53;21.70;99.90
42833;DHT22;64089;51.478;5.692;2023-08-12T09:54:19;21.80;99.90
42833;DHT22;64089;51.478;5.692;2023-08-12T09:56:47;21.90;99.90
42833;DHT22;64089;51.478;5.692;2023-08-12T09:59:18;21.90;99.90
42833;DHT22;64089;51.478;5.692;2023-08-12T10:01:44;22.10;99.90
42833;DHT22;64089;51.478;5.692;2023-08-12T10:04:11;22.10;99.90
42833;DHT22;64089;51.478;5.692;2023-08-12T10:06:40;22.20;99.90
42833;DHT22;64089;51.478;5.692;2023-08-12T10:09:06;22.50;99.90
42833;DHT22;64089;51.478;5.692;2023-08-12T10:11:34;22.60;99.90
42833;DHT22;64089;51.478;5.692;2023-08-12T10:14:00;22.50;99.90
42833;DHT22;64089;51.478;5.692;2023-08-12T10:16:29;22.20;99.90
42833;DHT22;64089;51.478;5.692;2023-08-12T10:18:56;22.20;99.90
42833;DHT22;64089;51.478;5.692;2023-08-12T10:21:22;22.20;99.90
42833;DHT22;64089;51.478;5.692;2023-08-12T10:23:50;22.30;99.90
42833;DHT22;64089;51.478;5.692;2023-08-12T10:26:17;22.20;99.90
42833;DHT22;64089;51.478;5.692;2023-08-12T10:28:43;22.10;99.90
42833;DHT22;64089;51.478;5.692;2023-08-12T10:31:11;22.10;99.90
42833;DHT22;64089;51.478;5.692;2023-08-12T10:33:38;22.00;99.90
42833;DHT22;64089;51.478;5.692;2023-08-12T10:36:04;22.10;99.90
42833;DHT22;64089;51.478;5.692;2023-08-12T10:38:31;22.10;99.90
42833;DHT22;64089;51.478;5.692;2023-08-12T10:43:55;22.20;99.90
42833;DHT22;64089;51.478;5.692;2023-08-12T10:46:30;22.30;99.90
42833;DHT22;64089;51.478;5.692;2023-08-12T10:49:09;22.40;99.90
42833;DHT22;64089;51.478;5.692;2023-08-12T10:54:24;23.00;99.90
42833;DHT22;64089;51.478;5.692;2023-08-12T11:02:26;23.10;99.90
42833;DHT22;64089;51.478;5.692;2023-08-12T11:04:53;23.00;99.90
42833;DHT22;64089;51.478;5.692;2023-08-12T11:07:21;22.90;99.90
42833;DHT22;64089;51.478;5.692;2023-08-12T11:09:51;22.90;99.90
42833;DHT22;64089;51.478;5.692;2023-08-12T11:12:18;22.80;99.90
42833;DHT22;64089;51.478;5.692;2023-08-12T11:14:54;22.70;99.90
42833;DHT22;64089;51.478;5.692;2023-08-12T11:17:19;22.80;99.90
42833;DHT22;64089;51.478;5.692;2023-08-12T11:19:45;22.80;99.90
42833;DHT22;64089;51.478;5.692;2023-08-12T11:22:11;23.00;99.90
42833;DHT22;64089;51.478;5.692;2023-08-12T11:24:40;23.00;99.90
42833;DHT22;64089;51.478;5.692;2023-08-12T11:27:09;22.80;99.90
42833;DHT22;64089;51.478;5.692;2023-08-12T11:29:37;23.20;99.90
42833;DHT22;64089;51.478;5.692;2023-08-12T11:32:03;23.40;99.90
42833;DHT22;64089;51.478;5.692;2023-08-12T11:34:30;23.50;99.90
42833;DHT22;64089;51.478;5.692;2023-08-12T11:36:57;23.40;99.90
42833;DHT22;64089;51.478;5.692;2023-08-12T11:39:23;23.20;99.90
42833;DHT22;64089;51.478;5.692;2023-08-12T11:41:48;23.20;99.90
42833;DHT22;64089;51.478;5.692;2023-08-12T11:44:16;23.10;99.90
42833;DHT22;64089;51.478;5.692;2023-08-12T11:46:42;23.20;99.90
42833;DHT22;64089;51.478;5.692;2023-08-12T11:49:07;23.20;99.90
42833;DHT22;64089;51.478;5.692;2023-08-12T11:51:34;22.90;99.90
42833;DHT22;64089;51.478;5.692;2023-08-12T11:54:00;23.10;99.90
42833;DHT22;64089;51.478;5.692;2023-08-12T11:56:26;23.50;99.90
42833;DHT22;64089;51.478;5.692;2023-08-12T11:58:52;23.70;99.90
42833;DHT22;64089;51.478;5.692;2023-08-12T12:01:21;23.80;99.90
42833;DHT22;64089;51.478;5.692;2023-08-12T12:03:52;23.50;99.90
42833;DHT22;64089;51.478;5.692;2023-08-12T12:06:27;23.50;99.90
42833;DHT22;64089;51.478;5.692;2023-08-12T12:08:52;23.40;99.90
42833;DHT22;64089;51.478;5.692;2023-08-12T12:11:19;23.30;99.90
42833;DHT22;64089;51.478;5.692;2023-08-12T12:13:45;23.40;99.90
42833;DHT22;64089;51.478;5.692;2023-08-12T12:16:12;23.50;99.90
42833;DHT22;64089;51.478;5.692;2023-08-12T12:18:38;23.80;99.90
42833;DHT22;64089;51.478;5.692;2023-08-12T12:21:04;23.80;99.90
42833;DHT22;64089;51.478;5.692;2023-08-12T12:23:30;23.80;99.90
42833;DHT22;64089;51.478;5.692;2023-08-12T12:26:00;23.60;99.90
42833;DHT22;64089;51.478;5.692;2023-08-12T12:28:27;23.60;99.90
42833;DHT22;64089;51.478;5.692;2023-08-12T12:30:53;23.60;99.90
42833;DHT22;64089;51.478;5.692;2023-08-12T12:33:18;23.90;99.90
42833;DHT22;64089;51.478;5.692;2023-08-12T12:35:44;24.00;99.90
42833;DHT22;64089;51.478;5.692;2023-08-12T12:38:09;24.30;99.90
42833;DHT22;64089;51.478;5.692;2023-08-12T12:40:35;24.80;99.90
42833;DHT22;64089;51.478;5.692;2023-08-12T12:43:03;24.40;99.90
42833;DHT22;64089;51.478;5.692;2023-08-12T12:45:29;24.10;99.90
42833;DHT22;64089;51.478;5.692;2023-08-12T12:47:54;23.90;99.90
42833;DHT22;64089;51.478;5.692;2023-08-12T12:50:20;23.50;99.90
42833;DHT22;64089;51.478;5.692;2023-08-12T12:52:46;23.40;99.90
42833;DHT22;64089;51.478;5.692;2023-08-12T12:55:12;23.40;99.90
42833;DHT22;64089;51.478;5.692;2023-08-12T12:57:38;23.40;99.90
42833;DHT22;64089;51.478;5.692;2023-08-12T13:00:04;23.50;99.90
42833;DHT22;64089;51.478;5.692;2023-08-12T13:02:30;23.50;99.90
42833;DHT22;64089;51.478;5.692;2023-08-12T13:04:56;23.60;99.90
42833;DHT22;64089;51.478;5.692;2023-08-12T13:07:21;23.50;99.90
42833;DHT22;64089;51.478;5.692;2023-08-12T13:09:47;23.50;99.90
42833;DHT22;64089;51.478;5.692;2023-08-12T13:12:13;23.60;99.90
42833;DHT22;64089;51.478;5.692;2023-08-12T13:14:39;23.70;99.90
42833;DHT22;64089;51.478;5.692;2023-08-12T13:17:04;23.80;99.90
42833;DHT22;64089;51.478;5.692;2023-08-12T13:19:30;23.90;99.90
42833;DHT22;64089;51.478;5.692;2023-08-12T13:21:55;24.20;99.90
42833;DHT22;64089;51.478;5.692;2023-08-12T13:24:21;24.50;99.90
42833;DHT22;64089;51.478;5.692;2023-08-12T13:26:47;24.40;99.90
42833;DHT22;64089;51.478;5.692;2023-08-12T13:29:12;24.80;99.90
42833;DHT22;64089;51.478;5.692;2023-08-12T13:31:38;25.20;99.90
42833;DHT22;64089;51.478;5.692;2023-08-12T13:34:04;25.60;99.90
42833;DHT22;64089;51.478;5.692;2023-08-12T13:36:30;25.00;99.90
42833;DHT22;64089;51.478;5.692;2023-08-12T13:38:56;24.90;99.90
42833;DHT22;64089;51.478;5.692;2023-08-12T13:41:21;24.70;99.90
42833;DHT22;64089;51.478;5.692;2023-08-12T13:43:47;24.60;99.90
42833;DHT22;64089;51.478;5.692;2023-08-12T13:46:12;24.60;99.90
42833;DHT22;64089;51.478;5.692;2023-08-12T13:48:38;25.20;99.90
42833;DHT22;64089;51.478;5.692;2023-08-12T13:51:04;25.40;99.90
42833;DHT22;64089;51.478;5.692;2023-08-12T13:53:29;25.60;99.90
42833;DHT22;64089;51.478;5.692;2023-08-12T13:55:55;25.10;99.90
42833;DHT22;64089;51.478;5.692;2023-08-12T13:58:21;24.90;99.90
42833;DHT22;64089;51.478;5.692;2023-08-12T14:00:46;24.80;99.90
42833;DHT22;64089;51.478;5.692;2023-08-12T14:03:12;24.80;99.90
42833;DHT22;64089;51.478;5.692;2023-08-12T14:05:39;24.40;99.90
42833;DHT22;64089;51.478;5.692;2023-08-12T14:08:05;24.20;99.90
42833;DHT22;64089;51.478;5.692;2023-08-12T14:10:30;24.30;99.90
42833;DHT22;64089;51.478;5.692;2023-08-12T14:12:56;24.50;99.90
42833;DHT22;64089;51.478;5.692;2023-08-12T14:15:21;25.00;99.90
42833;DHT22;64089;51.478;5.692;2023-08-12T14:17:47;24.90;99.90
42833;DHT22;64089;51.478;5.692;2023-08-12T14:20:13;24.70;99.90
42833;DHT22;64089;51.478;5.692;2023-08-12T14:22:40;24.90;99.90
42833;DHT22;64089;51.478;5.692;2023-08-12T14:25:06;24.90;99.90
42833;DHT22;64089;51.478;5.692;2023-08-12T14:27:32;24.50;99.90
42833;DHT22;64089;51.478;5.692;2023-08-12T14:29:58;24.40;99.90
42833;DHT22;64089;51.478;5.692;2023-08-12T14:32:23;24.20;99.90
42833;DHT22;64089;51.478;5.692;2023-08-12T14:34:49;24.20;99.90
42833;DHT22;64089;51.478;5.692;2023-08-12T14:37:15;24.20;99.90
42833;DHT22;64089;51.478;5.692;2023-08-12T14:39:41;24.00;99.90
42833;DHT22;64089;51.478;5.692;2023-08-12T14:42:06;24.10;99.90
42833;DHT22;64089;51.478;5.692;2023-08-12T14:44:34;24.10;99.90
42833;DHT22;64089;51.478;5.692;2023-08-12T14:47:00;24.10;99.90
42833;DHT22;64089;51.478;5.692;2023-08-12T14:49:26;24.10;99.90
42833;DHT22;64089;51.478;5.692;2023-08-12T14:51:54;24.20;99.90
42833;DHT22;64089;51.478;5.692;2023-08-12T14:54:19;24.50;99.90
42833;DHT22;64089;51.478;5.692;2023-08-12T14:56:45;24.70;99.90
42833;DHT22;64089;51.478;5.692;2023-08-12T14:59:10;25.30;99.90
42833;DHT22;64089;51.478;5.692;2023-08-12T15:01:37;25.70;99.90
42833;DHT22;64089;51.478;5.692;2023-08-12T15:04:03;25.80;99.90
42833;DHT22;64089;51.478;5.692;2023-08-12T15:06:28;26.10;99.90
42833;DHT22;64089;51.478;5.692;2023-08-12T15:08:54;26.50;99.90
42833;DHT22;64089;51.478;5.692;2023-08-12T15:11:20;26.70;99.90
42833;DHT22;64089;51.478;5.692;2023-08-12T15:13:45;26.10;99.90
42833;DHT22;64089;51.478;5.692;2023-08-12T15:16:12;25.90;99.90
42833;DHT22;64089;51.478;5.692;2023-08-12T15:18:37;26.00;99.90
42833;DHT22;64089;51.478;5.692;2023-08-12T15:21:03;25.70;99.90
42833;DHT22;64089;51.478;5.692;2023-08-12T15:23:29;25.90;99.90
42833;DHT22;64089;51.478;5.692;2023-08-12T15:25:55;26.20;99.90
42833;DHT22;64089;51.478;5.692;2023-08-12T15:28:20;26.30;99.90
42833;DHT22;64089;51.478;5.692;2023-08-12T15:30:50;26.20;99.90
42833;DHT22;64089;51.478;5.692;2023-08-12T15:33:15;25.70;99.90
42833;DHT22;64089;51.478;5.692;2023-08-12T15:35:42;25.60;99.90
42833;DHT22;64089;51.478;5.692;2023-08-12T15:38:08;25.80;99.90